Portada
METAR-TAF:

METAR-TAF

Aeropuertos :

Aeropuerto de Kumamoto

Kumamoto, Japón

latitud: 32-50N, longitud: 130-51E, altitud: 193 m

Observación

El informe se hizo hace 1 hora y 1 minutos, a las 04:00 UTC
Viento 4 kt del norte, variando entre oeste-noroeste y este-sureste
Temperatura 13°C
Humedad 44%
Presión 1029 hPa
Visibilidad 10 km o más
Escasas nubes a una altura de 3000 ft

METAR: RJFT 200400Z 01004KT 300V110 9999 FEW030 13/01 Q1029

Hora: 14:01 (05:01 UTC)

Pronóstico

El informe se hizo hace 5 horas y 55 minutos, a las 23:06 UTC
Pronóstico válido del 20 a las 00 UTC al 21 a las 06 UTC
Viento 3 kt del oeste-noroeste
Visibilidad 10 km o más
Escasas nubes a una altura de 3000 ft
Evolucionando progresivamente
del 20 a las 09 UTC al 20 a las 11 UTC
Viento 8 kt del este-noreste
Evolucionando progresivamente
del 21 a las 00 UTC al 21 a las 03 UTC
Viento 5 kt del oeste

TAF: RJFT 192306Z 2000/2106 29003KT 9999 FEW030 BECMG 2009/2011 06008KT BECMG 2100/2103 27005KT

Observaciones y pronósticos meteorológicos de más de 4000 aeropuertos (mensajes METAR y TAF).

Los puntos amarillos y rojos representan las estaciones disponibles.

Ponga el ratón en el punto deseado para ver el nombre de la estación.

Haga clic para ver las observaciones y los pronósticos meteorológicos.

Para cambiar el mapa : haga clic en los botones verdes con una cruz de color negro para hacer un zoom, en el botón verde con un guión para alejar o en las flechas verdes para mapas adyacentes.


METAR-TAF: